Time;durP1;ratioP1;P1;durP2;ratioP2;P2;SDS_P1;SDS_P2;PMS_P1;PMS_P2;Temp;Humidity;BMP_temperature;BMP_pressure;BME280_temperature;BME280_humidity;BME280_pressure;Samples;Min_cycle;Max_cycle;Signal;HPM_P1;HPM_P2
2023/05/17 00:00:23;;;;;;;32.42;10.32;;;11.10;77.00;;;;;;5047958;28;20042;-63
2023/05/17 00:02:48;;;;;;;28.92;9.68;;;11.10;95.50;;;;;;5051758;28;20104;-63
2023/05/17 00:05:14;;;;;;;27.45;8.05;;;11.00;99.90;;;;;;5051235;28;20037;-63
2023/05/17 00:07:40;;;;;;;28.52;9.15;;;11.00;99.90;;;;;;5051831;28;20060;-63
2023/05/17 00:10:06;;;;;;;23.92;8.98;;;10.90;99.90;;;;;;5052063;28;20083;-63
2023/05/17 00:12:31;;;;;;;35.97;9.38;;;10.90;99.90;;;;;;5051843;28;20076;-63
2023/05/17 00:14:57;;;;;;;27.13;9.05;;;11.90;99.90;;;;;;5051688;28;20072;-63
2023/05/17 00:17:23;;;;;;;29.23;10.07;;;10.90;99.90;;;;;;5050960;28;20438;-63
2023/05/17 00:19:48;;;;;;;22.75;8.27;;;10.90;99.90;;;;;;5051653;28;20044;-63
2023/05/17 00:22:14;;;;;;;29.50;9.30;;;11.00;99.90;;;;;;5051415;28;20076;-63
2023/05/17 00:24:39;;;;;;;26.30;9.10;;;11.00;99.90;;;;;;5051136;28;20037;-62
2023/05/17 00:27:05;;;;;;;29.30;9.00;;;11.00;99.90;;;;;;5050658;28;20033;-63
2023/05/17 00:29:30;;;;;;;28.85;8.95;;;11.10;99.90;;;;;;5051034;28;20047;-62
2023/05/17 00:31:56;;;;;;;31.17;9.68;;;11.10;99.90;;;;;;5051257;28;20566;-63
2023/05/17 00:34:21;;;;;;;30.40;11.00;;;11.10;99.90;;;;;;5050894;28;20044;-63
2023/05/17 00:36:47;;;;;;;22.98;8.43;;;11.10;99.90;;;;;;5049897;28;20047;-63
2023/05/17 00:39:12;;;;;;;27.88;9.68;;;11.00;99.90;;;;;;5050763;28;20143;-63
2023/05/17 00:41:38;;;;;;;30.67;10.38;;;11.00;99.90;;;;;;5050905;28;20136;-63
2023/05/17 00:44:04;;;;;;;26.40;8.57;;;11.00;99.90;;;;;;5050743;28;20427;-63
2023/05/17 00:46:29;;;;;;;26.90;9.93;;;11.00;99.90;;;;;;5050192;28;20494;-63
2023/05/17 00:48:55;;;;;;;28.27;10.77;;;10.80;99.90;;;;;;5049742;28;20056;-63
2023/05/17 00:51:21;;;;;;;25.45;9.98;;;10.80;99.90;;;;;;5050923;28;20055;-63
2023/05/17 00:53:47;;;;;;;27.05;9.38;;;10.80;99.90;;;;;;5049358;28;20470;-63
2023/05/17 00:56:13;;;;;;;23.85;8.20;;;10.80;99.90;;;;;;5047254;28;20044;-63
2023/05/17 00:58:39;;;;;;;33.13;10.70;;;11.40;99.90;;;;;;5051040;28;20222;-63
2023/05/17 01:01:05;;;;;;;29.50;9.95;;;10.70;99.90;;;;;;5048487;28;20108;-63
2023/05/17 01:03:31;;;;;;;25.60;9.45;;;10.70;99.90;;;;;;5050530;28;20566;-62
2023/05/17 01:05:57;;;;;;;23.85;9.15;;;10.70;99.90;;;;;;5050136;28;20037;-63
2023/05/17 01:08:22;;;;;;;25.30;9.57;;;10.70;99.90;;;;;;5050826;28;20039;-63
2023/05/17 01:11:14;;;;;;;25.15;8.88;;;10.60;99.90;;;;;;5050406;28;20099;-63
2023/05/17 01:14:14;;;;;;;29.05;10.50;;;10.60;99.90;;;;;;5049243;28;20036;-63
2023/05/17 01:16:50;;;;;;;29.95;9.48;;;10.70;99.90;;;;;;5049915;28;20044;-63
2023/05/17 01:19:56;;;;;;;28.42;12.07;;;10.80;99.90;;;;;;5050073;28;20045;-63
2023/05/17 01:22:21;;;;;;;25.95;8.90;;;10.70;99.90;;;;;;5049971;28;20045;-63
2023/05/17 01:25:24;;;;;;;29.95;9.48;;;10.80;1.00;;;;;;5050424;28;20098;-63
2023/05/17 01:27:53;;;;;;;32.38;10.60;;;10.90;1.00;;;;;;5045481;28;20045;-63
2023/05/17 01:30:19;;;;;;;25.10;8.77;;;10.80;1.00;;;;;;5049596;28;20049;-63
2023/05/17 01:32:45;;;;;;;34.22;11.50;;;10.90;1.00;;;;;;5050175;28;20033;-63
2023/05/17 01:35:11;;;;;;;27.92;10.30;;;10.90;1.00;;;;;;5050191;28;20175;-63
2023/05/17 01:37:37;;;;;;;35.35;9.95;;;11.00;1.00;;;;;;5049229;28;20124;-63
2023/05/17 01:40:04;;;;;;;29.70;9.50;;;10.90;1.00;;;;;;5049931;28;20530;-63
2023/05/17 01:42:31;;;;;;;31.20;9.02;;;11.00;1.00;;;;;;5049745;28;20465;-63
2023/05/17 01:45:09;;;;;;;23.58;8.52;;;11.00;1.00;;;;;;5050036;28;20052;-63
2023/05/17 01:47:50;;;;;;;25.42;7.53;;;11.10;1.00;;;;;;5048366;28;20057;-62
2023/05/17 01:50:18;;;;;;;22.38;7.75;;;11.00;1.00;;;;;;5064740;28;20044;-63
2023/05/17 01:52:50;;;;;;;29.63;10.40;;;11.00;99.90;;;;;;5049686;28;20116;-63
2023/05/17 01:55:29;;;;;;;20.88;9.15;;;11.00;99.90;;;;;;5047540;28;20068;-63
2023/05/17 01:57:56;;;;;;;21.02;8.23;;;10.90;99.90;;;;;;5048936;28;20126;-63
2023/05/17 02:00:24;;;;;;;19.35;7.22;;;10.70;99.90;;;;;;5049534;28;20045;-63
2023/05/17 02:02:49;;;;;;;18.23;7.57;;;10.70;99.90;;;;;;5049647;28;20053;-63
2023/05/17 02:05:15;;;;;;;28.05;7.00;;;10.60;99.90;;;;;;5049389;28;20089;-63
2023/05/17 02:07:40;;;;;;;22.10;6.95;;;10.60;99.90;;;;;;5048911;28;20114;-63
2023/05/17 02:10:07;;;;;;;19.58;7.57;;;10.60;99.90;;;;;;5048942;28;20044;-63
2023/05/17 02:12:32;;;;;;;24.40;8.13;;;10.50;99.90;;;;;;5049694;28;20037;-63
2023/05/17 02:14:58;;;;;;;20.45;7.43;;;10.50;99.90;;;;;;5049430;28;20033;-63
2023/05/17 02:17:23;;;;;;;22.02;7.28;;;10.40;99.90;;;;;;5048866;28;20033;-63
2023/05/17 02:19:49;;;;;;;15.75;6.45;;;10.50;99.90;;;;;;5049215;28;20033;-62
2023/05/17 02:22:15;;;;;;;14.20;6.43;;;10.50;99.90;;;;;;5049436;28;20052;-63
2023/05/17 02:24:40;;;;;;;14.13;5.32;;;10.40;99.90;;;;;;5049261;28;20033;-63
2023/05/17 02:27:06;;;;;;;19.75;6.38;;;10.40;99.90;;;;;;5048185;28;20108;-63
2023/05/17 02:29:32;;;;;;;18.77;6.65;;;10.40;99.90;;;;;;5049031;28;20090;-63
2023/05/17 02:31:57;;;;;;;17.45;5.97;;;10.50;99.90;;;;;;5049461;28;20041;-63
2023/05/17 02:34:23;;;;;;;16.65;5.55;;;10.50;99.90;;;;;;5049533;28;20040;-63
2023/05/17 02:36:48;;;;;;;15.63;6.35;;;10.60;96.70;;;;;;5048798;28;20120;-63
2023/05/17 02:39:14;;;;;;;19.58;6.20;;;10.50;85.20;;;;;;5048825;28;20414;-63
2023/05/17 02:41:39;;;;;;;17.70;6.25;;;12.70;61.70;;;;;;5048740;28;20040;-63
2023/05/17 02:44:05;;;;;;;14.55;4.50;;;10.50;32.40;;;;;;5049087;28;20099;-63
2023/05/17 02:46:30;;;;;;;16.88;4.88;;;10.60;1.00;;;;;;5048232;28;20036;-63
2023/05/17 02:48:56;;;;;;;16.70;5.05;;;10.50;1.00;;;;;;5048726;28;20469;-63
2023/05/17 02:51:22;;;;;;;14.25;5.50;;;10.50;1.00;;;;;;5046178;28;20364;-62
2023/05/17 02:53:47;;;;;;;16.60;6.22;;;10.50;1.00;;;;;;5049011;28;20040;-63
2023/05/17 02:56:13;;;;;;;20.60;7.03;;;10.50;1.00;;;;;;5045448;28;20044;-63
2023/05/17 02:58:38;;;;;;;17.95;7.75;;;10.50;1.00;;;;;;5047673;28;20059;-63
2023/05/17 03:01:04;;;;;;;19.65;8.25;;;10.60;1.00;;;;;;5051038;28;20402;-63
2023/05/17 03:03:30;;;;;;;26.83;8.52;;;10.60;1.00;;;;;;5052793;28;20041;-63
2023/05/17 03:06:03;;;;;;;20.20;6.35;;;10.60;8.00;;;;;;5052997;28;20368;-63
2023/05/17 03:08:30;;;;;;;18.05;7.10;;;10.70;6.80;;;;;;5050865;28;20094;-63
2023/05/17 03:10:55;;;;;;;19.85;6.97;;;10.70;11.40;;;;;;5051534;28;20482;-63
2023/05/17 03:13:21;;;;;;;21.90;7.97;;;10.60;11.70;;;;;;5052464;28;20084;-63
2023/05/17 03:15:46;;;;;;;20.83;6.63;;;10.60;7.40;;;;;;5052645;28;20387;-63
2023/05/17 03:18:12;;;;;;;21.98;6.30;;;10.50;1.00;;;;;;5052550;28;20068;-63
2023/05/17 03:20:38;;;;;;;20.63;6.10;;;10.50;1.00;;;;;;5050797;28;20033;-63
2023/05/17 03:23:03;;;;;;;14.65;4.80;;;10.50;1.00;;;;;;5052857;28;20040;-63
2023/05/17 03:25:29;;;;;;;20.23;5.65;;;10.50;1.00;;;;;;5052200;28;20041;-63
2023/05/17 03:27:54;;;;;;;17.08;5.53;;;10.50;1.00;;;;;;5051868;28;20076;-63
2023/05/17 03:30:20;;;;;;;19.75;5.18;;;10.50;1.00;;;;;;5052336;28;20431;-63
2023/05/17 03:32:45;;;;;;;13.02;4.35;;;10.50;1.00;;;;;;5052224;28;20049;-63
2023/05/17 03:35:11;;;;;;;14.40;4.45;;;10.50;1.00;;;;;;5052020;28;20053;-63
2023/05/17 03:37:37;;;;;;;14.10;4.20;;;10.50;99.90;;;;;;5051999;28;20450;-63
2023/05/17 03:40:02;;;;;;;14.15;4.68;;;10.50;99.90;;;;;;5052091;28;20037;-63
2023/05/17 03:42:28;;;;;;;10.27;4.03;;;10.50;99.90;;;;;;5052436;28;20045;-63
2023/05/17 03:44:53;;;;;;;13.48;3.78;;;10.50;99.90;;;;;;5067402;28;20052;-63
2023/05/17 03:47:22;;;;;;;16.70;4.60;;;10.50;99.90;;;;;;5051546;28;20045;-63
2023/05/17 03:49:48;;;;;;;15.13;4.68;;;10.50;99.90;;;;;;5050474;28;20048;-63
2023/05/17 03:52:13;;;;;;;14.13;3.83;;;10.40;99.90;;;;;;5041791;28;20496;-63
2023/05/17 03:54:39;;;;;;;14.80;3.28;;;10.40;99.90;;;;;;5037343;28;20391;-63
2023/05/17 03:57:05;;;;;;;13.70;3.38;;;10.40;99.90;;;;;;5049557;28;20041;-63
2023/05/17 03:59:30;;;;;;;13.43;4.07;;;10.30;99.90;;;;;;5050880;28;20039;-63
2023/05/17 04:01:56;;;;;;;11.88;3.55;;;10.20;99.90;;;;;;5051928;28;20076;-63
2023/05/17 04:04:21;;;;;;;14.10;3.20;;;10.20;99.90;;;;;;5051861;28;20044;-63
2023/05/17 04:06:47;;;;;;;13.15;3.33;;;10.10;99.90;;;;;;5051453;28;20095;-63
2023/05/17 04:09:14;;;;;;;8.95;3.22;;;10.10;99.90;;;;;;5048922;28;20132;-63
2023/05/17 04:11:40;;;;;;;10.82;3.05;;;10.10;99.90;;;;;;5041075;28;20044;-63
2023/05/17 04:14:06;;;;;;;12.52;3.45;;;10.20;99.90;;;;;;5048684;28;20037;-63
2023/05/17 04:16:32;;;;;;;12.25;3.33;;;10.20;99.90;;;;;;5046381;28;20059;-63
2023/05/17 04:18:59;;;;;;;11.88;3.83;;;10.50;99.90;;;;;;5048948;28;20037;-63
2023/05/17 04:21:25;;;;;;;14.07;3.90;;;10.20;99.90;;;;;;5044889;28;20491;-63
2023/05/17 04:23:51;;;;;;;16.52;4.32;;;10.30;99.90;;;;;;5051126;28;20037;-63
2023/05/17 04:26:17;;;;;;;14.45;3.22;;;10.30;99.90;;;;;;5057491;28;20136;-63
2023/05/17 04:28:42;;;;;;;14.43;4.55;;;10.30;99.90;;;;;;5056075;28;20120;-63
2023/05/17 04:31:08;;;;;;;12.93;3.40;;;10.30;99.90;;;;;;5049911;28;20041;-63
2023/05/17 04:33:35;;;;;;;10.73;3.20;;;10.30;99.90;;;;;;5050523;28;20079;-63
2023/05/17 04:36:01;;;;;;;16.10;2.85;;;10.30;99.90;;;;;;5050730;28;20033;-63
2023/05/17 04:38:27;;;;;;;14.63;3.50;;;10.30;99.90;;;;;;5050453;28;20057;-63
2023/05/17 04:40:52;;;;;;;9.20;3.30;;;10.30;99.90;;;;;;5045472;28;20037;-63
2023/05/17 04:43:18;;;;;;;11.77;3.45;;;10.40;99.90;;;;;;5047585;28;20136;-63
2023/05/17 04:45:44;;;;;;;9.25;2.85;;;10.40;95.90;;;;;;5048888;28;20059;-63
2023/05/17 04:48:10;;;;;;;8.60;3.00;;;10.30;86.00;;;;;;5045717;28;20047;-63
2023/05/17 04:50:35;;;;;;;12.40;3.97;;;10.40;86.80;;;;;;5049346;28;20040;-63
2023/05/17 04:53:01;;;;;;;9.80;2.80;;;10.40;92.90;;;;;;5049178;28;20047;-63
2023/05/17 04:55:26;;;;;;;14.93;3.70;;;10.40;92.20;;;;;;5046649;28;20041;-63
2023/05/17 04:57:52;;;;;;;12.90;2.97;;;10.40;91.00;;;;;;5042489;28;20156;-63
2023/05/17 05:00:19;;;;;;;13.48;3.15;;;10.30;90.40;;;;;;5048836;28;20043;-63
2023/05/17 05:02:45;;;;;;;16.25;3.25;;;10.20;91.90;;;;;;5048524;28;20044;-63
2023/05/17 05:05:11;;;;;;;14.23;3.42;;;10.20;87.20;;;;;;5049143;28;20565;-63
2023/05/17 05:07:38;;;;;;;13.10;3.10;;;10.10;85.10;;;;;;5045750;28;20051;-63
2023/05/17 05:10:05;;;;;;;12.95;2.70;;;10.10;83.50;;;;;;5046535;28;20048;-63
2023/05/17 05:12:30;;;;;;;13.23;3.08;;;10.10;75.70;;;;;;5057365;28;20048;-63
2023/05/17 05:14:56;;;;;;;16.92;3.35;;;10.10;73.40;;;;;;5059120;28;20478;-63
2023/05/17 05:17:21;;;;;;;8.50;2.80;;;10.20;69.50;;;;;;5052774;28;20068;-63
2023/05/17 05:19:47;;;;;;;7.25;2.40;;;10.20;65.20;;;;;;5046442;28;20056;-63
2023/05/17 05:22:13;;;;;;;11.25;2.88;;;10.30;57.30;;;;;;5052737;28;20064;-63
2023/05/17 05:24:38;;;;;;;10.48;2.67;;;10.30;55.20;;;;;;5049814;28;20479;-63
2023/05/17 05:27:04;;;;;;;12.60;3.55;;;10.30;53.90;;;;;;5049672;28;20040;-66
2023/05/17 05:29:30;;;;;;;19.88;3.58;;;10.40;35.50;;;;;;5049194;28;20091;-63
2023/05/17 05:31:55;;;;;;;17.55;3.55;;;10.40;39.30;;;;;;5049476;28;20044;-63
2023/05/17 05:34:21;;;;;;;8.70;2.97;;;10.40;43.20;;;;;;5049438;28;20037;-63
2023/05/17 05:36:46;;;;;;;12.75;3.20;;;10.40;38.50;;;;;;5049171;28;20134;-63
2023/05/17 05:39:12;;;;;;;18.83;2.92;;;10.50;35.70;;;;;;5045500;28;20053;-63
2023/05/17 05:41:38;;;;;;;9.85;2.55;;;10.50;34.70;;;;;;5044642;28;20115;-63
2023/05/17 05:44:03;;;;;;;13.35;3.30;;;10.50;27.70;;;;;;5050652;28;20036;-63
2023/05/17 05:46:29;;;;;;;17.63;3.15;;;10.40;20.00;;;;;;5052314;28;20052;-63
2023/05/17 05:48:55;;;;;;;15.25;2.83;;;10.50;18.50;;;;;;5045392;28;20048;-64
2023/05/17 05:51:20;;;;;;;18.17;3.20;;;10.60;24.40;;;;;;5046855;28;20037;-63
2023/05/17 05:53:46;;;;;;;16.85;3.80;;;10.70;25.00;;;;;;5051465;28;20135;-63
2023/05/17 05:56:11;;;;;;;16.88;4.07;;;10.70;13.90;;;;;;5043641;28;20041;-63
2023/05/17 05:58:37;;;;;;;13.50;4.05;;;10.70;7.70;;;;;;5056791;28;20612;-63
2023/05/17 06:01:03;;;;;;;10.48;3.30;;;10.70;4.60;;;;;;5049316;28;20116;-63
2023/05/17 06:03:28;;;;;;;14.95;2.90;;;10.60;7.50;;;;;;5047261;28;20052;-63
2023/05/17 06:05:54;;;;;;;15.88;3.83;;;10.60;4.50;;;;;;5049739;28;20041;-62
2023/05/17 06:08:20;;;;;;;15.00;4.38;;;10.70;3.50;;;;;;5038361;28;20542;-62
2023/05/17 06:10:45;;;;;;;15.70;4.10;;;10.80;1.00;;;;;;5048111;28;20179;-62
2023/05/17 06:13:11;;;;;;;12.77;3.38;;;10.80;1.00;;;;;;5047408;28;20053;-62
2023/05/17 06:15:37;;;;;;;17.73;4.05;;;10.90;1.00;;;;;;5042408;28;20051;-62
2023/05/17 06:18:02;;;;;;;13.75;3.65;;;11.00;1.00;;;;;;5043069;28;20039;-65
2023/05/17 06:20:28;;;;;;;16.27;4.55;;;10.90;1.00;;;;;;5041231;28;20068;-64
2023/05/17 06:22:54;;;;;;;18.73;4.45;;;10.90;1.00;;;;;;5037846;28;20139;-64
2023/05/17 06:25:19;;;;;;;19.88;4.43;;;10.90;1.00;;;;;;5040850;28;20946;-64
2023/05/17 06:27:45;;;;;;;15.35;4.32;;;10.90;1.00;;;;;;5038013;28;20033;-64
2023/05/17 06:30:11;;;;;;;17.73;4.68;;;11.00;1.00;;;;;;5045177;28;20130;-65
2023/05/17 06:32:36;;;;;;;17.00;4.32;;;11.00;1.00;;;;;;5036496;28;20424;-63
2023/05/17 06:35:02;;;;;;;14.30;4.20;;;11.00;1.00;;;;;;5030502;28;20034;-64
2023/05/17 06:37:28;;;;;;;15.50;4.28;;;11.10;1.00;;;;;;5048374;28;20503;-63
2023/05/17 06:40:02;;;;;;;14.18;4.05;;;11.20;1.00;;;;;;5037058;28;20099;-63
2023/05/17 06:42:28;;;;;;;18.83;4.32;;;11.20;1.00;;;;;;5051650;28;20039;-63
2023/05/17 06:44:53;;;;;;;18.10;4.82;;;11.30;1.00;;;;;;5047893;28;20437;-65
2023/05/17 06:47:19;;;;;;;14.45;3.97;;;11.20;1.00;;;;;;5049415;28;20080;-64
2023/05/17 06:49:44;;;;;;;14.82;4.22;;;11.20;1.00;;;;;;5051689;28;20041;-64
2023/05/17 06:52:10;;;;;;;16.67;3.78;;;11.30;1.00;;;;;;5046788;28;20037;-64
2023/05/17 06:54:36;;;;;;;21.13;4.72;;;11.40;1.00;;;;;;5031846;28;20107;-64
2023/05/17 06:57:01;;;;;;;24.10;4.97;;;11.60;1.00;;;;;;5050595;28;20490;-64
2023/05/17 06:59:27;;;;;;;18.98;4.78;;;11.70;1.00;;;;;;5045517;28;20078;-64
2023/05/17 07:01:53;;;;;;;22.60;5.15;;;11.80;1.00;;;;;;5048132;28;20100;-64
2023/05/17 07:04:19;;;;;;;17.38;4.85;;;11.90;1.00;;;;;;5045460;28;20045;-64
2023/05/17 07:06:45;;;;;;;19.17;4.53;;;12.10;1.00;;;;;;5047265;28;20040;-66
2023/05/17 07:09:11;;;;;;;18.15;4.47;;;12.20;1.00;;;;;;5035966;28;20960;-64
2023/05/17 07:11:36;;;;;;;23.73;4.70;;;12.10;1.00;;;;;;5042682;28;20037;-64
2023/05/17 07:14:02;;;;;;;15.52;4.43;;;12.10;1.00;;;;;;5038508;28;20402;-64
2023/05/17 07:16:27;;;;;;;19.10;4.80;;;12.40;1.00;;;;;;5042052;28;20105;-64
2023/05/17 07:18:53;;;;;;;17.05;4.05;;;12.30;1.00;;;;;;5036732;28;20037;-64
2023/05/17 07:21:19;;;;;;;17.13;4.20;;;12.40;1.00;;;;;;5045166;28;20041;-64
2023/05/17 07:23:44;;;;;;;19.95;4.28;;;12.40;1.00;;;;;;5044960;28;20053;-65
2023/05/17 07:26:10;;;;;;;16.33;5.00;;;12.40;1.00;;;;;;5044448;28;20078;-64
2023/05/17 07:28:36;;;;;;;16.35;4.22;;;12.60;1.00;;;;;;5050642;28;20052;-65
2023/05/17 07:31:01;;;;;;;15.43;4.40;;;12.70;1.00;;;;;;5051371;28;20163;-65
2023/05/17 07:33:27;;;;;;;19.38;3.80;;;12.80;1.00;;;;;;5052039;28;20136;-64
2023/05/17 07:35:52;;;;;;;17.38;4.20;;;12.80;1.00;;;;;;5050414;28;20522;-64
2023/05/17 07:38:18;;;;;;;19.17;4.70;;;12.70;1.00;;;;;;5045116;28;20056;-65
2023/05/17 07:40:43;;;;;;;16.83;4.30;;;12.80;1.00;;;;;;5038624;28;20037;-64
2023/05/17 07:43:09;;;;;;;19.17;4.60;;;12.60;1.00;;;;;;5050600;28;20047;-65
2023/05/17 07:45:35;;;;;;;18.95;4.97;;;12.40;1.00;;;;;;5045620;28;20402;-64
2023/05/17 07:48:00;;;;;;;27.20;4.85;;;12.30;1.00;;;;;;5042910;28;20095;-64
2023/05/17 07:50:26;;;;;;;20.02;4.90;;;12.20;1.00;;;;;;5043776;28;20544;-64
2023/05/17 07:52:52;;;;;;;17.30;3.88;;;12.10;1.00;;;;;;5045995;28;20037;-64
2023/05/17 07:55:18;;;;;;;13.68;3.97;;;12.10;1.00;;;;;;5046290;28;20090;-64
2023/05/17 07:57:46;;;;;;;20.42;4.53;;;12.20;1.00;;;;;;5037265;28;20033;-65
2023/05/17 08:00:12;;;;;;;21.40;5.03;;;12.50;1.00;;;;;;5050464;28;20048;-64
2023/05/17 08:02:38;;;;;;;24.13;5.10;;;12.50;1.00;;;;;;5051273;28;20051;-64
2023/05/17 08:05:04;;;;;;;21.30;4.22;;;12.50;1.00;;;;;;5048254;28;20072;-65
2023/05/17 08:07:30;;;;;;;17.13;4.32;;;12.70;1.00;;;;;;5044794;28;20568;-65
2023/05/17 08:09:55;;;;;;;18.98;4.47;;;12.80;1.00;;;;;;5045817;28;20037;-64
2023/05/17 08:12:21;;;;;;;21.75;4.35;;;12.80;1.00;;;;;;5048610;28;20098;-65
2023/05/17 08:14:46;;;;;;;21.02;4.20;;;12.90;1.00;;;;;;5046730;28;20037;-65
2023/05/17 08:17:12;;;;;;;14.77;3.88;;;13.10;1.00;;;;;;5039930;28;20048;-65
2023/05/17 08:19:38;;;;;;;14.10;4.32;;;13.20;1.00;;;;;;5041365;28;20041;-65
2023/05/17 08:22:04;;;;;;;17.05;4.07;;;13.20;1.00;;;;;;5044336;28;20043;-65
2023/05/17 08:24:29;;;;;;;16.88;4.18;;;13.30;1.00;;;;;;5050765;28;20036;-65
2023/05/17 08:26:55;;;;;;;21.13;4.18;;;13.20;1.00;;;;;;5033805;28;20410;-65
2023/05/17 08:29:21;;;;;;;21.42;5.03;;;13.20;1.00;;;;;;5050711;28;20123;-65
2023/05/17 08:31:46;;;;;;;15.77;4.40;;;13.20;1.00;;;;;;5044263;28;20045;-65
2023/05/17 08:34:12;;;;;;;16.20;3.92;;;13.00;1.00;;;;;;5037420;28;20041;-64
2023/05/17 08:36:37;;;;;;;14.75;3.78;;;12.90;1.00;;;;;;5034126;28;20045;-65
2023/05/17 08:39:03;;;;;;;13.10;3.78;;;12.80;1.00;;;;;;5048247;28;20053;-64
2023/05/17 08:41:29;;;;;;;18.80;4.35;;;12.90;1.00;;;;;;5050432;28;20036;-65
2023/05/17 08:43:57;;;;;;;21.88;4.85;;;13.10;1.00;;;;;;5050722;28;20033;-64
2023/05/17 08:46:25;;;;;;;19.88;4.45;;;13.20;1.00;;;;;;5040219;28;20045;-64
2023/05/17 08:48:52;;;;;;;14.25;3.97;;;13.30;1.00;;;;;;5050633;28;20530;-65
2023/05/17 08:51:18;;;;;;;17.00;4.07;;;13.50;1.00;;;;;;5043245;28;20124;-65
2023/05/17 08:53:46;;;;;;;17.02;4.00;;;13.40;1.00;;;;;;5046047;28;20049;-65
2023/05/17 08:56:14;;;;;;;13.32;4.15;;;13.20;1.00;;;;;;5037360;28;20048;-64
2023/05/17 08:58:42;;;;;;;17.63;4.20;;;13.00;1.00;;;;;;5048905;28;20036;-64
2023/05/17 09:01:08;;;;;;;15.43;4.20;;;13.10;1.00;;;;;;5050483;28;20052;-64
2023/05/17 09:03:35;;;;;;;21.52;4.20;;;13.10;1.00;;;;;;5064668;28;20037;-64
2023/05/17 09:06:02;;;;;;;16.75;4.57;;;13.10;1.00;;;;;;5032542;28;20045;-64
2023/05/17 09:08:29;;;;;;;18.92;4.22;;;13.00;1.00;;;;;;5039578;28;20133;-64
2023/05/17 09:10:58;;;;;;;19.38;4.15;;;12.90;1.00;;;;;;5045064;28;20391;-64
2023/05/17 09:13:24;;;;;;;15.50;3.80;;;12.90;1.00;;;;;;5040958;28;20050;-65
2023/05/17 09:15:49;;;;;;;16.05;4.03;;;13.20;1.00;;;;;;5047583;28;20499;-64
2023/05/17 09:18:15;;;;;;;17.52;4.00;;;13.20;1.00;;;;;;5049375;28;20094;-64
2023/05/17 09:20:41;;;;;;;12.65;3.40;;;13.20;1.00;;;;;;5049746;28;20343;-65
2023/05/17 09:23:12;;;;;;;14.98;3.92;;;13.70;1.00;;;;;;5046293;28;20041;-64
2023/05/17 09:25:37;;;;;;;14.20;3.63;;;13.10;1.00;;;;;;5045615;28;20041;-64
2023/05/17 09:28:08;;;;;;;14.02;3.83;;;13.00;1.00;;;;;;5042491;28;20363;-65
2023/05/17 09:30:36;;;;;;;15.10;4.00;;;13.00;1.00;;;;;;5035968;28;20115;-64
2023/05/17 09:33:06;;;;;;;11.88;3.50;;;12.90;1.00;;;;;;5038833;28;20044;-64
2023/05/17 09:35:33;;;;;;;14.75;3.92;;;12.90;1.00;;;;;;5038623;28;20033;-64
2023/05/17 09:38:08;;;;;;;14.73;3.80;;;12.90;1.00;;;;;;5040066;28;20060;-64
2023/05/17 09:40:38;;;;;;;10.98;3.38;;;12.70;1.00;;;;;;5043961;28;20060;-64
2023/05/17 09:43:04;;;;;;;10.80;3.55;;;12.80;1.00;;;;;;5046437;28;20041;-64
2023/05/17 09:45:31;;;;;;;13.63;4.10;;;12.80;1.00;;;;;;5048215;28;20090;-64
2023/05/17 09:47:58;;;;;;;13.88;3.75;;;12.90;1.00;;;;;;5049621;28;20546;-64
2023/05/17 09:50:24;;;;;;;19.98;4.05;;;13.10;1.00;;;;;;5034288;28;20419;-64
2023/05/17 09:52:49;;;;;;;14.32;3.85;;;13.20;1.00;;;;;;5043093;28;20037;-64
2023/05/17 09:55:16;;;;;;;14.73;3.88;;;13.10;1.00;;;;;;5042286;28;20097;-65
2023/05/17 09:57:41;;;;;;;15.60;4.20;;;13.20;1.00;;;;;;5035820;28;20041;-65
2023/05/17 10:00:10;;;;;;;16.65;3.92;;;13.30;1.00;;;;;;5047319;28;20048;-65
2023/05/17 10:02:37;;;;;;;15.05;3.97;;;13.30;1.00;;;;;;5047818;28;20498;-64
2023/05/17 10:05:10;;;;;;;13.68;3.47;;;13.30;1.00;;;;;;5038474;28;20037;-65
2023/05/17 10:07:37;;;;;;;12.40;3.83;;;13.00;1.00;;;;;;5043516;28;20083;-64
2023/05/17 10:10:04;;;;;;;16.60;3.65;;;12.30;1.00;;;;;;5047483;28;20037;-64
2023/05/17 10:12:33;;;;;;;15.90;3.72;;;12.70;1.00;;;;;;5037715;28;20033;-65
2023/05/17 10:15:00;;;;;;;11.35;3.40;;;12.90;1.00;;;;;;5045308;28;20045;-65
2023/05/17 10:17:28;;;;;;;13.85;3.53;;;13.20;1.00;;;;;;5035019;28;20083;-65
2023/05/17 10:19:54;;;;;;;15.48;3.97;;;13.50;1.00;;;;;;5044367;28;20138;-65
2023/05/17 10:22:21;;;;;;;11.20;3.40;;;13.70;1.00;;;;;;5040596;28;20044;-65
2023/05/17 10:24:48;;;;;;;12.23;3.65;;;13.70;1.00;;;;;;5040177;28;20094;-61
2023/05/17 10:27:15;;;;;;;15.70;3.88;;;13.70;1.00;;;;;;5058482;28;20372;-61
2023/05/17 10:29:42;;;;;;;14.13;3.50;;;13.80;1.00;;;;;;5040075;28;20122;-61
2023/05/17 10:32:09;;;;;;;15.32;3.45;;;13.70;1.00;;;;;;5037582;28;20102;-60
2023/05/17 10:34:36;;;;;;;14.25;3.75;;;13.70;1.00;;;;;;5048671;28;20037;-61
2023/05/17 10:37:03;;;;;;;12.57;3.58;;;13.60;1.00;;;;;;5044646;28;20086;-61
2023/05/17 10:39:33;;;;;;;15.13;3.97;;;13.80;1.00;;;;;;5045103;28;20053;-61
2023/05/17 10:42:02;;;;;;;14.45;3.55;;;14.20;1.00;;;;;;5044208;28;20032;-61
2023/05/17 10:44:31;;;;;;;14.88;3.63;;;13.90;1.00;;;;;;5037562;28;20045;-61
2023/05/17 10:46:58;;;;;;;15.73;4.40;;;13.70;1.00;;;;;;5043485;28;20036;-60
2023/05/17 10:49:35;;;;;;;13.93;3.70;;;13.60;1.00;;;;;;5045642;28;20051;-61
2023/05/17 10:52:12;;;;;;;16.42;4.05;;;13.50;1.00;;;;;;5048171;28;20041;-61
2023/05/17 10:54:41;;;;;;;15.18;4.10;;;13.40;1.00;;;;;;5039992;28;20084;-60
2023/05/17 10:57:08;;;;;;;15.35;4.43;;;13.10;1.00;;;;;;5041960;28;20037;-60
2023/05/17 10:59:34;;;;;;;14.50;4.13;;;13.30;1.00;;;;;;5047052;28;20049;-60
2023/05/17 11:02:02;;;;;;;15.60;4.22;;;13.00;1.00;;;;;;5045233;28;20521;-60
2023/05/17 11:04:36;;;;;;;14.88;3.63;;;13.20;1.00;;;;;;5045762;28;20040;-60
2023/05/17 11:07:24;;;;;;;22.50;3.95;;;13.20;1.00;;;;;;5047692;28;20048;-60
2023/05/17 11:09:54;;;;;;;16.58;4.07;;;13.40;1.00;;;;;;5042393;28;20041;-60
2023/05/17 11:12:31;;;;;;;15.82;4.05;;;13.50;1.00;;;;;;5040446;28;20068;-60
2023/05/17 11:14:56;;;;;;;16.27;4.15;;;13.70;1.00;;;;;;5045801;28;20048;-60
2023/05/17 11:17:32;;;;;;;14.68;3.78;;;13.70;1.00;;;;;;5027792;28;20483;-60
2023/05/17 11:20:05;;;;;;;18.48;4.68;;;13.60;1.00;;;;;;5039131;28;20104;-60
2023/05/17 11:22:38;;;;;;;16.02;4.32;;;13.70;1.00;;;;;;5045742;28;20108;-60
2023/05/17 11:25:09;;;;;;;14.70;4.32;;;13.60;1.00;;;;;;5050642;28;20532;-61
2023/05/17 11:27:38;;;;;;;20.50;4.55;;;13.50;1.00;;;;;;5051371;28;20391;-60
2023/05/17 11:30:23;;;;;;;18.15;4.63;;;13.40;1.00;;;;;;5048881;28;20128;-60
2023/05/17 11:32:50;;;;;;;13.93;4.38;;;13.30;1.00;;;;;;5054339;28;20041;-60
2023/05/17 11:35:17;;;;;;;16.55;4.72;;;13.30;1.00;;;;;;5043009;28;20492;-60
2023/05/17 11:37:44;;;;;;;18.00;4.20;;;13.60;1.00;;;;;;5044293;28;20048;-60
2023/05/17 11:40:11;;;;;;;15.75;3.75;;;13.40;1.00;;;;;;5051458;28;20041;-60
2023/05/17 11:42:38;;;;;;;19.00;4.10;;;13.40;1.00;;;;;;5061571;28;20029;-60
2023/05/17 11:45:05;;;;;;;18.38;4.13;;;13.50;1.00;;;;;;5043717;28;20033;-60
2023/05/17 11:47:31;;;;;;;14.60;4.22;;;13.60;1.00;;;;;;5036665;28;20036;-60
2023/05/17 11:50:01;;;;;;;20.77;4.55;;;13.50;1.00;;;;;;5051448;28;20094;-61
2023/05/17 11:52:28;;;;;;;12.60;3.70;;;13.40;1.00;;;;;;5042493;28;20040;-60
2023/05/17 11:54:55;;;;;;;15.82;3.67;;;13.30;1.00;;;;;;5050138;28;20041;-61
2023/05/17 11:57:27;;;;;;;12.57;3.75;;;13.40;1.00;;;;;;5045491;28;20025;-61
2023/05/17 11:59:59;;;;;;;17.25;4.03;;;13.40;1.00;;;;;;5042649;28;20537;-60
2023/05/17 12:02:31;;;;;;;14.27;3.88;;;13.20;1.00;;;;;;5044889;28;20102;-60
2023/05/17 12:04:57;;;;;;;14.70;3.88;;;13.20;1.00;;;;;;5041636;28;20569;-61
2023/05/17 12:07:24;;;;;;;15.77;3.92;;;13.20;1.00;;;;;;5037719;28;20037;-60
2023/05/17 12:09:51;;;;;;;17.15;3.85;;;13.20;1.00;;;;;;5048514;28;20052;-60
2023/05/17 12:12:17;;;;;;;17.33;3.88;;;13.30;1.00;;;;;;5044843;28;20508;-61
2023/05/17 12:14:43;;;;;;;13.30;4.07;;;13.20;1.00;;;;;;5048455;28;20136;-61
2023/05/17 12:17:15;;;;;;;15.13;3.92;;;13.10;1.00;;;;;;5033397;28;20048;-60
2023/05/17 12:19:40;;;;;;;16.67;3.88;;;13.00;1.00;;;;;;5046917;28;20041;-60
2023/05/17 12:22:13;;;;;;;13.63;3.83;;;13.00;1.00;;;;;;5049392;28;20154;-60
2023/05/17 12:24:41;;;;;;;12.43;3.50;;;13.10;1.00;;;;;;5046333;28;20446;-60
2023/05/17 12:27:07;;;;;;;13.77;3.60;;;13.00;1.00;;;;;;5048148;28;20067;-60
2023/05/17 12:29:32;;;;;;;12.90;3.60;;;13.10;1.00;;;;;;5042106;28;20034;-60
2023/05/17 12:32:00;;;;;;;15.10;3.80;;;13.20;1.00;;;;;;5038720;28;20052;-60
2023/05/17 12:34:27;;;;;;;12.43;3.25;;;13.40;1.00;;;;;;5042997;28;20483;-61
2023/05/17 12:36:53;;;;;;;16.88;3.63;;;13.40;1.00;;;;;;5040135;28;20048;-60
2023/05/17 12:39:22;;;;;;;15.07;3.60;;;13.50;1.00;;;;;;5050614;28;20140;-60
2023/05/17 12:41:50;;;;;;;14.95;3.83;;;13.40;1.00;;;;;;5048724;28;20041;-60